Terminal Aerodrome Forecast
Issued by NWS

Home | Current Version | Previous Version | Text Only | Print | Product List | Glossary On
Versions: 1 2 3 4 5 6 7 8 9 10 11 12 13 14
000
FTUS42 KILM 252300
TAFCRE
TAF
KCRE 252331Z 2600/2624 16007KT P6SM FEW250
     FM260500 21006KT P6SM FEW030 FEW100 SCT150
     FM260900 22007KT P6SM SCT035 BKN090
     FM261100 25009KT P6SM SCT030 BKN050 BKN100
     FM261700 27011G19KT P6SM VCSH BKN030=

USA.gov is the U.S. government's official web portal to all federal, state and local government web resources and services.